Flight Track Log - Related Links

Times and Time Zones

All times are in EDT time to prevent confusion due to time zone crossing. See the N110GW flight status page for this flight to view local times or setup timezone preferences in your user account.

Time Position Orientation Groundspeed Altitude Reporting Facility
EDT Latitude Longitude Course Direction KTS MPH feet Rate Location/Type
Fri 10:07:00 AM 40.1561 -80.6475 171° South 111 128 2,200  Level Cleveland Center
Fri 10:08:02 AM 40.1208 -80.6406 171° South 134 154 3,500 878 Climbing Cleveland Center
Fri 10:09:03 AM 40.0756 -80.6461 185° South 158 182 4,000 1,366 Climbing Cleveland Center
Fri 10:10:05 AM 40.0264 -80.6508 184° South 177 204 6,300 1,839 Climbing Cleveland Center
Fri 10:11:07 AM 39.9833 -80.6542 183° South 160 184 7,800 1,548 Climbing Cleveland Center
Fri 10:12:09 AM 39.9378 -80.6600 186° South 162 186 9,500 1,694 Climbing Cleveland Center
Fri 10:13:11 AM 39.8978 -80.6644 185° South 148 170 11,300 1,846 Climbing Cleveland Center
Fri 10:13:53 AM 39.8650 -80.6697 187° South 139 160 12,700 1,543 Climbing Indianapolis Center
Fri 10:14:56 AM 39.8264 -80.6736 184° South 140 161 14,000 1,296 Climbing Indianapolis Center
Fri 10:15:58 AM 39.7836 -80.6772 184° South 150 173 15,400 1,355 Climbing Indianapolis Center
Fri 10:17:00 AM 39.7422 -80.6814 184° South 148 170 16,800 1,452 Climbing Indianapolis Center
Fri 10:18:02 AM 39.6911 -80.6861 184° South 151 174 18,400 1,355 Climbing Indianapolis Center
Fri 10:19:04 AM 39.6492 -80.6903 184° South 151 174 19,600 1,065 Climbing Indianapolis Center
Fri 10:20:06 AM 39.6072 -80.6939 184° South 151 174 20,600 968 Climbing Indianapolis Center
Fri 10:21:08 AM 39.5669 -80.6989 185° South 146 168 21,600 968 Climbing Indianapolis Center
Fri 10:22:10 AM 39.5267 -80.7025 184° South 145 167 22,600 871 Climbing Indianapolis Center
Fri 10:23:12 AM 39.4867 -80.7058 184° South 143 165 23,400 677 Climbing Indianapolis Center
Fri 10:24:14 AM 39.4467 -80.7114 186° South 144 166 24,000 290 Climbing Indianapolis Center
Fri 10:25:16 AM 39.3886 -80.7172 184° South 169 194 24,000  Level Indianapolis Center
Fri 10:26:18 AM 39.3319 -80.7203 182° South 197 227 24,000  Level Indianapolis Center
Fri 10:27:20 AM 39.2767 -80.7269 185° South 199 229 24,000  Level Indianapolis Center
Fri 10:28:22 AM 39.2189 -80.7336 185° South 206 237 24,000  Level Indianapolis Center
Fri 10:29:24 AM 39.1622 -80.7389 184° South 206 237 24,000  Level Indianapolis Center
Fri 10:30:26 AM 39.1053 -80.7431 183° South 203 234 24,000  Level Indianapolis Center
Fri 10:31:28 AM 39.0481 -80.7486 184° South 205 236 24,000  Level Indianapolis Center
Fri 10:32:31 AM 38.9786 -80.7553 184° South 207 238 24,000  Level Indianapolis Center
Fri 10:33:33 AM 38.9214 -80.7617 185° South 206 237 24,000  Level Indianapolis Center
Fri 10:34:35 AM 38.8644 -80.7675 185° South 204 235 24,000  Level Indianapolis Center
Fri 10:35:37 AM 38.8069 -80.7728 184° South 205 236 24,000  Level Indianapolis Center
Fri 10:36:39 AM 38.7483 -80.7778 184° South 208 239 24,000  Level Indianapolis Center
Fri 10:37:41 AM 38.6889 -80.7833 184° South 212 244 24,000  Level Indianapolis Center
Fri 10:38:43 AM 38.6319 -80.7889 184° South 208 239 24,000  Level Indianapolis Center
Fri 10:39:45 AM 38.5628 -80.7958 184° South 206 237 24,000  Level Indianapolis Center
Fri 10:40:47 AM 38.5061 -80.8008 184° South 205 236 24,000  Level Indianapolis Center
Fri 10:41:49 AM 38.4497 -80.8064 184° South 202 232 24,000  Level Indianapolis Center
Fri 10:42:51 AM 38.3922 -80.8125 185° South 205 236 24,000  Level Indianapolis Center
Fri 10:43:53 AM 38.3333 -80.8172 184° South 209 241 24,000  Level Indianapolis Center
Fri 10:44:55 AM 38.2769 -80.8233 185° South 205 236 24,000  Level Indianapolis Center
Fri 10:45:57 AM 38.2189 -80.8278 183° South 207 238 24,000  Level Indianapolis Center
Fri 10:46:59 AM 38.1503 -80.8353 185° South 205 236 24,000  Level Indianapolis Center
Fri 10:48:01 AM 38.0939 -80.8397 184° South 203 234 24,000  Level Indianapolis Center
Fri 10:49:03 AM 38.0356 -80.8458 185° South 207 238 24,000  Level Indianapolis Center
Fri 10:50:05 AM 37.9789 -80.8506 184° South 206 237 24,000  Level Indianapolis Center
Fri 10:51:07 AM 37.9203 -80.8564 184° South 208 239 24,000  Level Indianapolis Center
Fri 10:52:09 AM 37.8625 -80.8622 185° South 208 239 24,000  Level Indianapolis Center
Fri 10:53:11 AM 37.7967 -80.8678 184° South 207 238 24,000  Level Indianapolis Center
Fri 10:54:13 AM 37.7394 -80.8733 184° South 209 241 24,000  Level Indianapolis Center
Fri 10:55:14 AM 37.6836 -80.8794 185° South 209 241 24,000  Level Indianapolis Center
Fri 10:56:16 AM 37.6144 -80.8842 183° South 213 245 24,000  Level Indianapolis Center
Fri 10:57:18 AM 37.5567 -80.8908 185° South 214 246 24,000  Level Indianapolis Center
Fri 10:58:20 AM 37.4997 -80.8958 184° South 211 243 24,000  Level Indianapolis Center
Fri 10:59:22 AM 37.4403 -80.9011 184° South 216 249 24,000  Level Indianapolis Center
Fri 11:00:24 AM 37.3692 -80.9078 184° South 218 251 24,000  Level Indianapolis Center
Fri 11:01:25 AM 37.3100 -80.9131 184° South 219 252 24,000  Level Indianapolis Center
Fri 11:02:27 AM 37.2525 -80.9183 184° South 214 246 24,000  Level Indianapolis Center
Fri 11:03:29 AM 37.1844 -80.9250 184° South 210 242 24,000  Level Indianapolis Center
Fri 11:04:31 AM 37.1281 -80.9292 183° South 209 241 24,000  Level Indianapolis Center
Fri 11:05:33 AM 37.0700 -80.9381 187° South 215 247 24,000  Level Atlanta Center
Fri 11:06:33 AM 37.0117 -80.9403 182° South 215 247 24,000 450 Level Atlanta Center
Fri 11:07:33 AM 36.9514 -80.9453 184° South 208 239 24,900 950 Climbing Atlanta Center
Fri 11:08:33 AM 36.9078 -80.9497 185° South 185 213 25,900 800 Climbing Atlanta Center
Fri 11:09:33 AM 36.8661 -80.9564 187° South 165 190 26,500 500 Climbing Atlanta Center
Fri 11:10:33 AM 36.8225 -80.9581 182° South 160 184 26,900 250 Climbing Atlanta Center
Fri 11:11:33 AM 36.7808 -80.9622 185° South 166 191 27,000 50 Climbing Atlanta Center
Fri 11:12:33 AM 36.7331 -80.9642 182° South 166 191 27,000  Level Atlanta Center
Fri 11:13:33 AM 36.6789 -80.9689 184° South 187 215 27,000  Level Atlanta Center
Fri 11:14:33 AM 36.6292 -80.9839 194° South 192 221 27,000  Level Atlanta Center
Fri 11:15:33 AM 36.5819 -81.0089 203° Southwest 192 221 27,000 300 Level Atlanta Center
Fri 11:16:33 AM 36.5364 -81.0261 197° South 182 209 27,600 500 Climbing Atlanta Center
Fri 11:17:33 AM 36.4931 -81.0406 195° South 169 194 28,000 200 Climbing Atlanta Center
Fri 11:18:33 AM 36.4456 -81.0578 196° South 169 194 28,000  Level Atlanta Center
Fri 11:19:33 AM 36.4042 -81.0800 203° Southwest 169 194 28,000  Level Atlanta Center
Fri 11:20:33 AM 36.3567 -81.0997 198° South 174 200 28,000  Level Atlanta Center
Fri 11:21:33 AM 36.3072 -81.1247 202° Southwest 186 214 28,000  Level Atlanta Center
Fri 11:22:33 AM 36.2556 -81.1422 195° South 191 220 28,000  Level Atlanta Center
Fri 11:23:33 AM 36.2036 -81.1439 181° South 196 226 28,000  Level Atlanta Center
Fri 11:24:33 AM 36.1453 -81.1461 182° South 202 232 28,000  Level Atlanta Center
Fri 11:25:33 AM 36.0828 -81.1533 185° South 202 232 28,000  Level Atlanta Center
Fri 11:26:33 AM 36.0267 -81.1581 184° South 202 232 28,000  Level Atlanta Center
Fri 11:27:33 AM 35.9703 -81.1600 182° South 202 232 28,000  Level Atlanta Center
Fri 11:28:33 AM 35.9161 -81.1644 184° South 202 232 28,000  Level Atlanta Center
Fri 11:29:33 AM 35.8578 -81.1667 182° South 202 232 28,000  Level Atlanta Center
Fri 11:30:33 AM 35.8017 -81.1711 184° South 202 232 28,000  Level Atlanta Center
Fri 11:31:33 AM 35.7433 -81.1731 182° South 207 238 28,000  Level Atlanta Center
Fri 11:32:33 AM 35.6869 -81.1753 182° South 207 238 28,000  Level Atlanta Center
Fri 11:33:33 AM 35.6244 -81.1797 183° South 215 247 28,000  Level Atlanta Center
Fri 11:34:33 AM 35.5658 -81.1742 176° South 215 247 28,000  Level Atlanta Center
Fri 11:35:33 AM 35.5053 -81.1714 178° South 215 247 28,000  Level Atlanta Center
Fri 11:36:33 AM 35.4467 -81.1631 173° South 215 247 28,000  Level Atlanta Center
Fri 11:37:33 AM 35.3903 -81.1575 175° South 215 247 28,000  Level Atlanta Center
Fri 11:38:33 AM 35.3317 -81.1519 176° South 215 247 28,000  Level Atlanta Center
Fri 11:39:33 AM 35.2731 -81.1464 176° South 215 247 28,000  Level Atlanta Center
Fri 11:40:33 AM 35.2144 -81.1356 171° South 216 249 28,000  Level Atlanta Center
Fri 11:41:33 AM 35.1539 -81.1275 174° South 216 249 28,000  Level Atlanta Center
Fri 11:42:33 AM 35.0931 -81.1197 174° South 223 257 28,000  Level Atlanta Center
Fri 11:43:33 AM 35.0408 -81.1139 175° South 223 257 28,000  Level Atlanta Center
Fri 11:44:33 AM 34.9825 -81.1183 184° South 213 245 28,000  Level Atlanta Center
Fri 11:45:33 AM 34.9219 -81.1231 184° South 213 245 28,000  Level Atlanta Center
Fri 11:47:05 AM 34.8256 -81.1325 185° South 202 232 28,000  Level Jacksonville Center
Fri 11:48:05 AM 34.7733 -81.1386 185° South 208 239 28,000  Level Jacksonville Center
Fri 11:49:05 AM 34.7150 -81.1422 183° South 214 246 28,000  Level Jacksonville Center
Fri 11:50:05 AM 34.6567 -81.1461 183° South 220 253 28,000  Level Jacksonville Center
Fri 11:51:05 AM 34.5983 -81.1547 187° South 214 246 28,000  Level Jacksonville Center
Fri 11:52:05 AM 34.5422 -81.1558 181° South 214 246 28,000  Level Jacksonville Center
Fri 11:53:05 AM 34.4839 -81.1619 185° South 214 246 28,000 -500 Level Jacksonville Center
Fri 11:54:05 AM 34.4150 -81.1686 185° South 220 253 27,000 -800 Descending Jacksonville Center
Fri 11:55:05 AM 34.3464 -81.1725 183° South 240 276 26,400 -550 Descending Jacksonville Center
Fri 11:56:05 AM 34.2942 -81.1808 188° South 240 276 25,900 -800 Descending Jacksonville Center
Fri 11:57:05 AM 34.2233 -81.1822 181° South 235 270 24,800 -950 Descending Jacksonville Center
Fri 11:58:05 AM 34.1567 -81.1886 185° South 235 270 24,000 -400 Descending Jacksonville Center
Fri 11:59:05 AM 34.0900 -81.1925 183° South 235 270 24,000  Level Jacksonville Center
Fri 12:00:05 PM 34.0275 -81.2061 190° South 235 270 24,000  Level Jacksonville Center
Fri 12:01:05 PM 33.9694 -81.2272 197° South 235 270 24,000  Level Jacksonville Center
Fri 12:02:05 PM 33.9111 -81.2461 195° South 224 258 24,000  Level Jacksonville Center
Fri 12:03:05 PM 33.8508 -81.2647 194° South 224 258 24,000  Level Jacksonville Center
Fri 12:04:05 PM 33.7928 -81.2806 193° South 219 252 24,000  Level Jacksonville Center
Fri 12:05:05 PM 33.7344 -81.2992 195° South 219 252 24,000  Level Jacksonville Center
Fri 12:06:05 PM 33.6700 -81.3028 183° South 225 259 24,000  Level Jacksonville Center
Fri 12:07:05 PM 33.6031 -81.3017 179° South 230 265 24,000  Level Jacksonville Center
Fri 12:08:05 PM 33.5383 -81.2953 175° South 235 270 24,000  Level Jacksonville Center
Fri 12:09:05 PM 33.4714 -81.2939 179° South 235 270 24,000  Level Jacksonville Center
Fri 12:10:05 PM 33.4067 -81.2903 177° South 235 270 24,000  Level Jacksonville Center
Fri 12:11:05 PM 33.3400 -81.2889 179° South 235 270 24,000  Level Jacksonville Center
Fri 12:12:05 PM 33.2731 -81.2853 177° South 235 270 24,000  Level Jacksonville Center
Fri 12:13:05 PM 33.2064 -81.2839 179° South 235 270 24,000  Level Jacksonville Center
Fri 12:14:05 PM 33.1417 -81.2800 177° South 235 270 24,000  Level Jacksonville Center
Fri 12:15:05 PM 33.0769 -81.2761 177° South 235 270 24,000  Level Jacksonville Center
Fri 12:16:05 PM 33.0078 -81.2725 177° South 235 270 24,000  Level Jacksonville Center
Fri 12:17:05 PM 32.9411 -81.2689 177° South 240 276 24,000  Level Jacksonville Center
Fri 12:18:05 PM 32.8742 -81.2675 179° South 240 276 24,000  Level Jacksonville Center
Fri 12:19:05 PM 32.8075 -81.2639 177° South 240 276 24,000  Level Jacksonville Center
Fri 12:20:05 PM 32.7383 -81.2600 177° South 240 276 24,000  Level Jacksonville Center
Fri 12:21:05 PM 32.6675 -81.2589 179° South 240 276 24,000  Level Jacksonville Center
Fri 12:22:05 PM 32.6047 -81.2550 177° South 246 283 24,000  Level Jacksonville Center
Fri 12:23:05 PM 32.5297 -81.2539 179° South 246 283 24,000  Level Jacksonville Center
Fri 12:24:05 PM 32.4650 -81.2503 177° South 246 283 24,000  Level Jacksonville Center
Fri 12:25:05 PM 32.3958 -81.2467 177° South 246 283 24,000  Level Jacksonville Center
Fri 12:26:05 PM 32.3333 -81.2453 179° South 241 277 24,000  Level Jacksonville Center
Fri 12:27:05 PM 32.2664 -81.2417 177° South 234 269 24,000  Level Jacksonville Center
Fri 12:28:05 PM 32.2017 -81.2378 177° South 234 269 24,000  Level Jacksonville Center
Fri 12:29:05 PM 32.1347 -81.2342 177° South 234 269 24,000  Level Jacksonville Center
Fri 12:30:05 PM 32.0681 -81.2303 177° South 234 269 24,000  Level Jacksonville Center
Fri 12:31:05 PM 32.0033 -81.2292 179° South 234 269 24,000  Level Jacksonville Center
Fri 12:32:05 PM 31.9364 -81.2256 177° South 242 278 24,000  Level Jacksonville Center
Fri 12:33:05 PM 31.8758 -81.2217 177° South 237 273 24,000  Level Jacksonville Center
Fri 12:34:05 PM 31.8028 -81.2206 179° South 237 273 24,000  Level Jacksonville Center
Fri 12:35:05 PM 31.7419 -81.2167 177° South 237 273 24,000  Level Jacksonville Center
Fri 12:36:05 PM 31.6711 -81.2131 178° South 237 273 24,000  Level Jacksonville Center
Fri 12:37:05 PM 31.6022 -81.2094 177° South 237 273 24,000  Level Jacksonville Center
Fri 12:38:05 PM 31.5436 -81.2056 177° South 237 273 24,000  Level Jacksonville Center
Fri 12:39:05 PM 31.4706 -81.2022 178° South 237 273 24,000  Level Jacksonville Center
Fri 12:40:05 PM 31.4017 -81.2033 181° South 237 273 24,000  Level Jacksonville Center
Fri 12:41:05 PM 31.3411 -81.2019 179° South 237 273 24,000  Level Jacksonville Center
Fri 12:42:05 PM 31.2764 -81.2008 179° South 237 273 24,000  Level Jacksonville Center
Fri 12:43:05 PM 31.2094 -81.1947 176° South 237 273 24,000  Level Jacksonville Center
Fri 12:44:05 PM 31.1447 -81.1933 179° South 237 273 24,000  Level Jacksonville Center
Fri 12:45:05 PM 31.0778 -81.1872 176° South 237 273 24,000  Level Jacksonville Center
Fri 12:46:05 PM 31.0067 -81.1861 179° South 237 273 24,000  Level Jacksonville Center
Fri 12:47:05 PM 30.9400 -81.1825 177° South 237 273 24,000  Level Jacksonville Center
Fri 12:48:05 PM 30.8731 -81.1814 179° South 237 273 24,000  Level Jacksonville Center
Fri 12:49:05 PM 30.8081 -81.1681 170° South 237 273 24,000  Level Jacksonville Center
Fri 12:50:05 PM 30.7433 -81.1522 168° South 237 273 24,000  Level Jacksonville Center
Fri 12:51:05 PM 30.6761 -81.1392 171° South 237 273 24,000  Level Jacksonville Center
Fri 12:52:05 PM 30.6133 -81.1258 170° South 237 273 24,000  Level Jacksonville Center
Fri 12:53:05 PM 30.5464 -81.1125 170° South 237 273 24,000  Level Jacksonville Center
Fri 12:54:05 PM 30.4814 -81.0992 170° South 237 273 24,000  Level Jacksonville Center
Fri 12:55:05 PM 30.4167 -81.0883 172° South 237 273 24,000  Level Jacksonville Center
Fri 12:56:05 PM 30.3517 -81.0728 168° South 237 273 24,000  Level Jacksonville Center
Fri 12:57:05 PM 30.2867 -81.0619 172° South 237 273 24,000  Level Jacksonville Center
Fri 12:58:05 PM 30.2219 -81.0489 170° South 237 273 24,000  Level Jacksonville Center
Fri 12:59:05 PM 30.1592 -81.0356 170° South 237 273 24,000  Level Jacksonville Center
Fri 01:00:05 PM 30.0919 -81.0247 172° South 237 273 24,000  Level Jacksonville Center
Fri 01:01:05 PM 30.0292 -81.0117 170° South 237 273 24,000  Level Jacksonville Center
Fri 01:02:05 PM 29.9644 -80.9961 168° South 237 273 24,000  Level Jacksonville Center
Fri 01:03:05 PM 29.8953 -80.9878 174° South 237 273 24,000  Level Jacksonville Center
Fri 01:04:05 PM 29.8325 -80.9725 168° South 237 273 24,000  Level Jacksonville Center
Fri 01:05:05 PM 29.7656 -80.9594 170° South 237 273 24,000  Level Jacksonville Center
Fri 01:06:05 PM 29.7025 -80.9464 170° South 237 273 24,000  Level Jacksonville Center
Fri 01:07:05 PM 29.6336 -80.9356 172° South 237 273 24,000  Level Jacksonville Center
Fri 01:08:05 PM 29.5667 -80.9228 171° South 237 273 24,000  Level Jacksonville Center
Fri 01:09:05 PM 29.4994 -80.9075 169° South 237 273 24,000  Level Jacksonville Center
Fri 01:10:05 PM 29.4344 -80.8919 168° South 237 273 24,000  Level Jacksonville Center
Fri 01:12:15 PM 29.2878 -80.8700 173° South 253 291 24,000  Level Miami Center
Fri 01:13:15 PM 29.2233 -80.8556 169° South 253 291 24,000  Level Miami Center
Fri 01:14:15 PM 29.1569 -80.8439 171° South 253 291 24,000  Level Miami Center
Fri 01:15:15 PM 29.0886 -80.8294 170° South 253 291 24,000  Level Miami Center
Fri 01:16:15 PM 29.0203 -80.8150 170° South 253 291 24,000  Level Miami Center
Fri 01:17:15 PM 28.9536 -80.8033 171° South 253 291 24,000  Level Miami Center
Fri 01:18:15 PM 28.8894 -80.7892 169° South 247 284 24,000  Level Miami Center
Fri 01:19:15 PM 28.8231 -80.7750 169° South 247 284 24,000  Level Miami Center
Fri 01:20:15 PM 28.7547 -80.7631 171° South 252 290 24,000 -500 Level Miami Center
Fri 01:21:15 PM 28.6903 -80.7514 171° South 261 300 23,000 -800 Descending Miami Center
Fri 01:22:15 PM 28.6133 -80.7367 170° South 274 315 22,400 -650 Descending Miami Center
Fri 01:23:15 PM 28.5306 -80.7197 170° South 274 315 21,700 -700 Descending Miami Center
Fri 01:24:15 PM 28.4536 -80.7053 171° South 274 315 21,000 -600 Descending Miami Center
Fri 01:25:15 PM 28.3792 -80.6814 164° South 281 323 20,500 -650 Descending Miami Center
Fri 01:26:15 PM 28.3181 -80.6253 141° Southeast 286 329 19,700 -850 Descending Miami Center
Fri 01:27:15 PM 28.2589 -80.5689 140° Southeast 287 330 18,800 -1,150 Descending Miami Center
Fri 01:28:15 PM 28.2000 -80.5128 140° Southeast 290 334 17,400 -1,300 Descending Miami Center
Fri 01:29:15 PM 28.1367 -80.4519 140° Southeast 290 334 16,200 -1,250 Descending Miami Center
Fri 01:30:15 PM 28.0756 -80.3911 139° Southeast 290 334 14,900 -650 Descending Miami Center
Fri 01:31:15 PM 28.0164 -80.3331 139° Southeast 290 334 14,900  Level Miami Center
Fri 01:32:15 PM 27.9594 -80.2772 139° Southeast 290 334 14,900  Level Miami Center
Fri 01:33:15 PM 27.9042 -80.2239 140° Southeast 278 320 14,900  Level Miami Center
Fri 01:34:15 PM 27.8453 -80.1608 137° Southeast 268 308 14,900  Level Miami Center
Fri 01:35:15 PM 27.7942 -80.1125 140° Southeast 263 303 14,900  Level Miami Center
Fri 01:36:15 PM 27.7389 -80.0569 138° Southeast 263 303 14,900  Level Miami Center
Fri 01:37:15 PM 27.6778 -79.9989 140° Southeast 263 303 14,900  Level Miami Center
Fri 01:38:15 PM 27.6158 -79.9550 148° Southeast 263 303 14,900 -450 Level Miami Center
Fri 01:39:15 PM 27.5453 -79.9392 169° South 257 296 14,000 -1,100 Descending Miami Center
Fri 01:40:15 PM 27.4744 -79.9278 172° South 285 328 12,700 -1,050 Descending Miami Center
Fri 01:41:15 PM 27.3956 -79.9142 171° South 290 334 11,900 -400 Descending Miami Center
Fri 01:42:15 PM 27.3186 -79.9028 173° South 270 311 11,900  Level Miami Center
Fri 01:43:15 PM 27.2500 -79.8892 170° South 259 298 11,900 50 Level Miami Center
Fri 01:44:15 PM 27.1789 -79.8875 179° South 253 291 12,000 -150 Climbing Miami Center
Fri 01:45:15 PM 27.1183 -79.8858 179° South 253 291 11,600 -750 Descending Miami Center
Fri 01:46:15 PM 27.0411 -79.8883 182° South 259 298 10,500 -1,050 Descending Miami Center
Fri 01:47:15 PM 26.9556 -79.8861 179° South 280 322 9,500 -750 Descending Miami Center
Fri 01:48:15 PM 26.8803 -79.8889 182° South 275 316 9,000 -750 Descending Miami Center
Fri 01:49:15 PM 26.8092 -79.8917 182° South 265 305 8,000 -950 Descending Miami Center
Fri 01:50:15 PM 26.7464 -79.9042 190° South 265 305 7,100 -1,000 Descending Miami Center
Fri 01:51:15 PM 26.6708 -79.9161 188° South 260 299 6,000 -1,243 Descending Miami Center
Fri 01:52:35 PM 26.5869 -79.9347 191° South 238 274 4,200 -1,436 Descending Miami Center
Fri 01:53:12 PM 26.5472 -79.9383 185° South 237 273 3,200 -735 Descending Miami Center
Fri 01:54:13 PM 26.4800 -79.9506 189° South 223 257 3,000 -103 Descending Miami Center
Fri 01:55:08 PM 26.4317 -79.9656 196° South 193 222 3,000  Level Miami Center
Fri 01:56:09 PM 26.3792 -79.9806 194° South 189 217 3,000  Level Miami Center
Fri 01:57:10 PM 26.3328 -80.0025 203° Southwest 190 219 3,000  Level Miami Center
Fri 01:58:18 PM 26.3003 -80.0547 235° Southwest 172 198 3,000  Level Miami Center
Fri 01:59:13 PM 26.2931 -80.0986 260° West 157 181 3,000  Level Miami Center
Fri 02:00:14 PM 26.2939 -80.1472 271° West 153 176 3,000  Level Miami Center
Fri 02:01:15 PM 26.2908 -80.1936 266° West 148 170 3,000  Level Miami Center
Fri 02:02:16 PM 26.3044 -80.2358 290° West 170 196 3,000 -390 Level Miami Center
Fri 02:03:18 PM 26.3261 -80.2017 55° Northeast 163 188 2,200 -732 Descending Miami Center
Fri 02:04:19 PM 26.3061 -80.1639 121° Southeast 135 155 1,500 -703 Descending Miami Center
Fri 02:05:26 PM 26.2794 -80.1400 141° Southeast 107 123 700 -716 Descending Miami Center

Login

Don't have an account? Register now (free) for customized features, flight alerts, and more!